sensor_id;sensor_type;location;lat;lon;timestamp;P1;durP1;ratioP1;P2;durP2;ratioP2
55435;SDS011;41307;53.142;6.430;2023-07-20T00:01:52;1.90;;;0.90;;
55435;SDS011;41307;53.142;6.430;2023-07-20T00:04:18;2.22;;;1.00;;
55435;SDS011;41307;53.142;6.430;2023-07-20T00:06:43;0.95;;;0.73;;
55435;SDS011;41307;53.142;6.430;2023-07-20T00:09:10;2.10;;;1.00;;
55435;SDS011;41307;53.142;6.430;2023-07-20T00:11:36;1.40;;;0.80;;
55435;SDS011;41307;53.142;6.430;2023-07-20T00:14:05;1.40;;;0.85;;
55435;SDS011;41307;53.142;6.430;2023-07-20T00:16:31;1.23;;;0.93;;
55435;SDS011;41307;53.142;6.430;2023-07-20T00:18:57;1.75;;;0.85;;
55435;SDS011;41307;53.142;6.430;2023-07-20T00:21:23;1.50;;;0.70;;
55435;SDS011;41307;53.142;6.430;2023-07-20T00:23:48;1.90;;;0.75;;
55435;SDS011;41307;53.142;6.430;2023-07-20T00:26:14;1.35;;;0.75;;
55435;SDS011;41307;53.142;6.430;2023-07-20T00:28:40;1.77;;;0.90;;
55435;SDS011;41307;53.142;6.430;2023-07-20T00:31:05;1.75;;;0.68;;
55435;SDS011;41307;53.142;6.430;2023-07-20T00:33:31;1.33;;;0.73;;
55435;SDS011;41307;53.142;6.430;2023-07-20T00:35:57;1.30;;;0.82;;
55435;SDS011;41307;53.142;6.430;2023-07-20T00:38:23;1.42;;;0.90;;
55435;SDS011;41307;53.142;6.430;2023-07-20T00:40:50;3.65;;;1.27;;
55435;SDS011;41307;53.142;6.430;2023-07-20T00:43:15;1.63;;;0.90;;
55435;SDS011;41307;53.142;6.430;2023-07-20T00:45:41;1.17;;;0.80;;
55435;SDS011;41307;53.142;6.430;2023-07-20T00:48:08;1.90;;;1.00;;
55435;SDS011;41307;53.142;6.430;2023-07-20T00:50:34;1.23;;;0.73;;
55435;SDS011;41307;53.142;6.430;2023-07-20T00:53:00;2.05;;;0.90;;
55435;SDS011;41307;53.142;6.430;2023-07-20T00:55:30;1.27;;;0.98;;
55435;SDS011;41307;53.142;6.430;2023-07-20T00:57:56;1.67;;;1.05;;
55435;SDS011;41307;53.142;6.430;2023-07-20T01:00:23;1.63;;;1.20;;
55435;SDS011;41307;53.142;6.430;2023-07-20T01:02:48;2.10;;;1.27;;
55435;SDS011;41307;53.142;6.430;2023-07-20T01:05:14;1.83;;;1.02;;
55435;SDS011;41307;53.142;6.430;2023-07-20T01:07:50;2.33;;;1.30;;
55435;SDS011;41307;53.142;6.430;2023-07-20T01:13:01;2.83;;;1.10;;
55435;SDS011;41307;53.142;6.430;2023-07-20T01:15:28;2.35;;;1.33;;
55435;SDS011;41307;53.142;6.430;2023-07-20T01:17:54;1.45;;;0.90;;
55435;SDS011;41307;53.142;6.430;2023-07-20T01:20:20;3.28;;;1.15;;
55435;SDS011;41307;53.142;6.430;2023-07-20T01:30:59;1.67;;;0.93;;
55435;SDS011;41307;53.142;6.430;2023-07-20T01:33:46;1.83;;;1.00;;
55435;SDS011;41307;53.142;6.430;2023-07-20T01:36:13;2.67;;;1.20;;
55435;SDS011;41307;53.142;6.430;2023-07-20T01:38:41;2.20;;;1.27;;
55435;SDS011;41307;53.142;6.430;2023-07-20T01:41:07;2.25;;;1.30;;
55435;SDS011;41307;53.142;6.430;2023-07-20T01:43:34;1.90;;;1.02;;
55435;SDS011;41307;53.142;6.430;2023-07-20T01:45:59;1.90;;;1.00;;
55435;SDS011;41307;53.142;6.430;2023-07-20T01:48:25;2.13;;;1.05;;
55435;SDS011;41307;53.142;6.430;2023-07-20T01:50:51;2.20;;;1.10;;
55435;SDS011;41307;53.142;6.430;2023-07-20T01:53:17;2.13;;;0.93;;
55435;SDS011;41307;53.142;6.430;2023-07-20T01:55:43;1.38;;;0.98;;
55435;SDS011;41307;53.142;6.430;2023-07-20T01:58:08;1.65;;;0.90;;
55435;SDS011;41307;53.142;6.430;2023-07-20T02:00:36;2.17;;;1.02;;
55435;SDS011;41307;53.142;6.430;2023-07-20T02:03:02;2.25;;;1.00;;
55435;SDS011;41307;53.142;6.430;2023-07-20T02:05:28;1.75;;;1.10;;
55435;SDS011;41307;53.142;6.430;2023-07-20T02:07:54;2.50;;;1.30;;
55435;SDS011;41307;53.142;6.430;2023-07-20T02:10:19;2.65;;;1.40;;
55435;SDS011;41307;53.142;6.430;2023-07-20T02:12:45;2.13;;;1.25;;
55435;SDS011;41307;53.142;6.430;2023-07-20T02:15:11;1.35;;;1.17;;
55435;SDS011;41307;53.142;6.430;2023-07-20T02:17:38;2.10;;;1.02;;
55435;SDS011;41307;53.142;6.430;2023-07-20T02:20:06;1.58;;;1.10;;
55435;SDS011;41307;53.142;6.430;2023-07-20T02:22:35;2.30;;;1.10;;
55435;SDS011;41307;53.142;6.430;2023-07-20T02:25:01;2.15;;;1.20;;
55435;SDS011;41307;53.142;6.430;2023-07-20T02:27:27;1.88;;;1.30;;
55435;SDS011;41307;53.142;6.430;2023-07-20T02:29:52;1.85;;;1.00;;
55435;SDS011;41307;53.142;6.430;2023-07-20T02:32:18;2.17;;;1.40;;
55435;SDS011;41307;53.142;6.430;2023-07-20T02:34:43;2.15;;;1.25;;
55435;SDS011;41307;53.142;6.430;2023-07-20T02:37:09;1.73;;;0.95;;
55435;SDS011;41307;53.142;6.430;2023-07-20T02:39:35;1.70;;;1.00;;
55435;SDS011;41307;53.142;6.430;2023-07-20T02:42:01;1.55;;;0.98;;
55435;SDS011;41307;53.142;6.430;2023-07-20T02:44:27;2.60;;;1.13;;
55435;SDS011;41307;53.142;6.430;2023-07-20T02:46:52;1.13;;;0.88;;
55435;SDS011;41307;53.142;6.430;2023-07-20T02:49:18;1.30;;;0.88;;
55435;SDS011;41307;53.142;6.430;2023-07-20T02:51:43;1.33;;;0.95;;
55435;SDS011;41307;53.142;6.430;2023-07-20T02:54:09;1.75;;;1.00;;
55435;SDS011;41307;53.142;6.430;2023-07-20T02:56:35;2.55;;;1.30;;
55435;SDS011;41307;53.142;6.430;2023-07-20T02:59:01;1.92;;;1.05;;
55435;SDS011;41307;53.142;6.430;2023-07-20T03:01:27;1.88;;;0.90;;
55435;SDS011;41307;53.142;6.430;2023-07-20T03:03:54;1.85;;;1.25;;
55435;SDS011;41307;53.142;6.430;2023-07-20T03:06:23;2.10;;;1.23;;
55435;SDS011;41307;53.142;6.430;2023-07-20T03:08:48;1.67;;;1.05;;
55435;SDS011;41307;53.142;6.430;2023-07-20T03:11:18;2.55;;;1.25;;
55435;SDS011;41307;53.142;6.430;2023-07-20T03:13:45;2.05;;;0.93;;
55435;SDS011;41307;53.142;6.430;2023-07-20T03:16:12;2.08;;;1.27;;
55435;SDS011;41307;53.142;6.430;2023-07-20T03:18:42;1.83;;;1.17;;
55435;SDS011;41307;53.142;6.430;2023-07-20T03:21:09;1.92;;;1.42;;
55435;SDS011;41307;53.142;6.430;2023-07-20T03:23:41;2.60;;;1.30;;
55435;SDS011;41307;53.142;6.430;2023-07-20T03:26:07;2.40;;;1.05;;
55435;SDS011;41307;53.142;6.430;2023-07-20T03:28:37;1.92;;;1.15;;
55435;SDS011;41307;53.142;6.430;2023-07-20T03:31:04;1.95;;;1.20;;
55435;SDS011;41307;53.142;6.430;2023-07-20T03:33:30;2.50;;;1.33;;
55435;SDS011;41307;53.142;6.430;2023-07-20T03:35:57;1.77;;;1.10;;
55435;SDS011;41307;53.142;6.430;2023-07-20T03:38:23;2.28;;;1.60;;
55435;SDS011;41307;53.142;6.430;2023-07-20T03:40:56;2.47;;;1.45;;
55435;SDS011;41307;53.142;6.430;2023-07-20T03:43:24;1.83;;;1.20;;
55435;SDS011;41307;53.142;6.430;2023-07-20T03:45:51;2.15;;;1.00;;
55435;SDS011;41307;53.142;6.430;2023-07-20T03:48:18;1.98;;;1.38;;
55435;SDS011;41307;53.142;6.430;2023-07-20T03:50:49;1.52;;;1.10;;
55435;SDS011;41307;53.142;6.430;2023-07-20T03:53:16;1.60;;;1.10;;
55435;SDS011;41307;53.142;6.430;2023-07-20T03:55:46;1.50;;;0.95;;
55435;SDS011;41307;53.142;6.430;2023-07-20T03:58:17;1.00;;;0.80;;
55435;SDS011;41307;53.142;6.430;2023-07-20T04:00:44;1.85;;;1.05;;
55435;SDS011;41307;53.142;6.430;2023-07-20T04:03:11;1.55;;;1.10;;
55435;SDS011;41307;53.142;6.430;2023-07-20T04:05:37;1.58;;;0.90;;
55435;SDS011;41307;53.142;6.430;2023-07-20T04:08:02;1.50;;;0.93;;
55435;SDS011;41307;53.142;6.430;2023-07-20T04:10:28;2.58;;;1.15;;
55435;SDS011;41307;53.142;6.430;2023-07-20T04:12:54;2.17;;;1.13;;
55435;SDS011;41307;53.142;6.430;2023-07-20T04:15:20;2.00;;;0.90;;
55435;SDS011;41307;53.142;6.430;2023-07-20T04:17:46;2.00;;;1.20;;
55435;SDS011;41307;53.142;6.430;2023-07-20T04:20:12;3.05;;;1.40;;
55435;SDS011;41307;53.142;6.430;2023-07-20T04:22:38;1.08;;;0.88;;
55435;SDS011;41307;53.142;6.430;2023-07-20T04:25:04;1.73;;;1.15;;
55435;SDS011;41307;53.142;6.430;2023-07-20T04:27:29;1.65;;;0.98;;
55435;SDS011;41307;53.142;6.430;2023-07-20T04:29:55;1.13;;;0.80;;
55435;SDS011;41307;53.142;6.430;2023-07-20T04:32:23;1.77;;;0.80;;
55435;SDS011;41307;53.142;6.430;2023-07-20T04:34:50;1.50;;;1.10;;
55435;SDS011;41307;53.142;6.430;2023-07-20T04:37:15;1.55;;;1.00;;
55435;SDS011;41307;53.142;6.430;2023-07-20T04:39:41;1.73;;;1.27;;
55435;SDS011;41307;53.142;6.430;2023-07-20T04:42:07;1.73;;;1.05;;
55435;SDS011;41307;53.142;6.430;2023-07-20T04:44:32;1.52;;;0.93;;
55435;SDS011;41307;53.142;6.430;2023-07-20T04:46:58;1.40;;;0.95;;
55435;SDS011;41307;53.142;6.430;2023-07-20T04:49:24;1.20;;;0.70;;
55435;SDS011;41307;53.142;6.430;2023-07-20T04:51:51;2.55;;;0.88;;
55435;SDS011;41307;53.142;6.430;2023-07-20T04:54:17;1.25;;;0.80;;
55435;SDS011;41307;53.142;6.430;2023-07-20T04:56:43;1.60;;;1.02;;
55435;SDS011;41307;53.142;6.430;2023-07-20T04:59:09;1.70;;;0.93;;
55435;SDS011;41307;53.142;6.430;2023-07-20T05:01:35;2.45;;;1.10;;
55435;SDS011;41307;53.142;6.430;2023-07-20T05:04:01;2.05;;;1.00;;
55435;SDS011;41307;53.142;6.430;2023-07-20T05:06:27;1.00;;;0.75;;
55435;SDS011;41307;53.142;6.430;2023-07-20T05:08:52;1.42;;;0.73;;
55435;SDS011;41307;53.142;6.430;2023-07-20T05:11:18;1.38;;;0.75;;
55435;SDS011;41307;53.142;6.430;2023-07-20T05:13:44;1.50;;;0.90;;
55435;SDS011;41307;53.142;6.430;2023-07-20T05:16:10;1.02;;;0.80;;
55435;SDS011;41307;53.142;6.430;2023-07-20T05:18:36;1.33;;;0.70;;
55435;SDS011;41307;53.142;6.430;2023-07-20T05:21:02;0.88;;;0.60;;
55435;SDS011;41307;53.142;6.430;2023-07-20T05:23:27;1.73;;;0.88;;
55435;SDS011;41307;53.142;6.430;2023-07-20T05:25:54;2.08;;;0.65;;
55435;SDS011;41307;53.142;6.430;2023-07-20T05:28:21;1.20;;;0.63;;
55435;SDS011;41307;53.142;6.430;2023-07-20T05:30:47;1.00;;;0.68;;
55435;SDS011;41307;53.142;6.430;2023-07-20T05:33:12;0.98;;;0.50;;
55435;SDS011;41307;53.142;6.430;2023-07-20T05:35:38;1.23;;;0.60;;
55435;SDS011;41307;53.142;6.430;2023-07-20T05:38:04;0.88;;;0.57;;
55435;SDS011;41307;53.142;6.430;2023-07-20T05:40:31;1.10;;;0.50;;
55435;SDS011;41307;53.142;6.430;2023-07-20T05:42:57;1.77;;;0.50;;
55435;SDS011;41307;53.142;6.430;2023-07-20T05:45:24;0.55;;;0.50;;
55435;SDS011;41307;53.142;6.430;2023-07-20T05:47:49;0.88;;;0.22;;
55435;SDS011;41307;53.142;6.430;2023-07-20T05:50:15;0.68;;;0.30;;
55435;SDS011;41307;53.142;6.430;2023-07-20T05:52:41;0.68;;;0.50;;
55435;SDS011;41307;53.142;6.430;2023-07-20T05:55:06;1.00;;;0.50;;
55435;SDS011;41307;53.142;6.430;2023-07-20T05:57:33;0.68;;;0.30;;
55435;SDS011;41307;53.142;6.430;2023-07-20T05:59:59;0.60;;;0.28;;
55435;SDS011;41307;53.142;6.430;2023-07-20T06:02:24;1.10;;;0.38;;
55435;SDS011;41307;53.142;6.430;2023-07-20T06:04:50;0.50;;;0.20;;
55435;SDS011;41307;53.142;6.430;2023-07-20T06:07:16;1.05;;;0.40;;
55435;SDS011;41307;53.142;6.430;2023-07-20T06:09:41;1.40;;;0.30;;
55435;SDS011;41307;53.142;6.430;2023-07-20T06:12:07;0.70;;;0.30;;
55435;SDS011;41307;53.142;6.430;2023-07-20T06:14:33;1.05;;;0.30;;
55435;SDS011;41307;53.142;6.430;2023-07-20T06:16:59;0.30;;;0.30;;
55435;SDS011;41307;53.142;6.430;2023-07-20T06:19:25;0.47;;;0.20;;
55435;SDS011;41307;53.142;6.430;2023-07-20T06:21:50;0.20;;;0.10;;
55435;SDS011;41307;53.142;6.430;2023-07-20T06:24:16;1.17;;;0.15;;
55435;SDS011;41307;53.142;6.430;2023-07-20T06:26:42;0.15;;;0.10;;
55435;SDS011;41307;53.142;6.430;2023-07-20T06:29:08;0.20;;;0.20;;
55435;SDS011;41307;53.142;6.430;2023-07-20T06:31:34;0.10;;;0.10;;
55435;SDS011;41307;53.142;6.430;2023-07-20T06:34:01;0.38;;;0.10;;
55435;SDS011;41307;53.142;6.430;2023-07-20T06:36:27;0.38;;;0.20;;
55435;SDS011;41307;53.142;6.430;2023-07-20T06:38:53;0.10;;;0.10;;
55435;SDS011;41307;53.142;6.430;2023-07-20T06:41:19;0.70;;;0.20;;
55435;SDS011;41307;53.142;6.430;2023-07-20T06:43:45;0.00;;;0.00;;
55435;SDS011;41307;53.142;6.430;2023-07-20T06:46:11;0.15;;;0.10;;
55435;SDS011;41307;53.142;6.430;2023-07-20T06:48:36;0.47;;;0.15;;
55435;SDS011;41307;53.142;6.430;2023-07-20T06:51:02;0.45;;;0.10;;
55435;SDS011;41307;53.142;6.430;2023-07-20T06:53:28;1.50;;;0.10;;
55435;SDS011;41307;53.142;6.430;2023-07-20T06:55:54;0.20;;;0.10;;
55435;SDS011;41307;53.142;6.430;2023-07-20T06:58:22;0.90;;;0.30;;
55435;SDS011;41307;53.142;6.430;2023-07-20T07:00:49;0.60;;;0.15;;
55435;SDS011;41307;53.142;6.430;2023-07-20T07:03:15;0.73;;;0.35;;
55435;SDS011;41307;53.142;6.430;2023-07-20T07:05:40;0.32;;;0.13;;
55435;SDS011;41307;53.142;6.430;2023-07-20T07:08:06;0.13;;;0.10;;
55435;SDS011;41307;53.142;6.430;2023-07-20T07:10:33;1.08;;;0.10;;
55435;SDS011;41307;53.142;6.430;2023-07-20T07:13:00;0.40;;;0.15;;
55435;SDS011;41307;53.142;6.430;2023-07-20T07:15:26;0.93;;;0.10;;
55435;SDS011;41307;53.142;6.430;2023-07-20T07:17:52;0.25;;;0.17;;
55435;SDS011;41307;53.142;6.430;2023-07-20T07:20:18;0.40;;;0.20;;
55435;SDS011;41307;53.142;6.430;2023-07-20T07:22:44;1.38;;;0.28;;
55435;SDS011;41307;53.142;6.430;2023-07-20T07:25:10;0.60;;;0.30;;
55435;SDS011;41307;53.142;6.430;2023-07-20T07:27:36;0.60;;;0.20;;
55435;SDS011;41307;53.142;6.430;2023-07-20T07:30:02;0.88;;;0.30;;
55435;SDS011;41307;53.142;6.430;2023-07-20T07:32:28;1.02;;;0.10;;
55435;SDS011;41307;53.142;6.430;2023-07-20T07:34:54;1.40;;;0.38;;
55435;SDS011;41307;53.142;6.430;2023-07-20T07:37:21;0.93;;;0.30;;
55435;SDS011;41307;53.142;6.430;2023-07-20T07:39:46;0.47;;;0.20;;
55435;SDS011;41307;53.142;6.430;2023-07-20T07:42:12;0.20;;;0.20;;
55435;SDS011;41307;53.142;6.430;2023-07-20T07:44:38;0.82;;;0.38;;
55435;SDS011;41307;53.142;6.430;2023-07-20T07:47:03;0.43;;;0.30;;
55435;SDS011;41307;53.142;6.430;2023-07-20T07:49:30;1.80;;;0.57;;
55435;SDS011;41307;53.142;6.430;2023-07-20T07:51:56;0.50;;;0.20;;
55435;SDS011;41307;53.142;6.430;2023-07-20T07:54:22;1.75;;;0.40;;
55435;SDS011;41307;53.142;6.430;2023-07-20T07:56:48;0.38;;;0.25;;
55435;SDS011;41307;53.142;6.430;2023-07-20T07:59:13;1.38;;;0.50;;
55435;SDS011;41307;53.142;6.430;2023-07-20T08:01:39;0.90;;;0.40;;
55435;SDS011;41307;53.142;6.430;2023-07-20T08:04:07;0.80;;;0.43;;
55435;SDS011;41307;53.142;6.430;2023-07-20T08:06:33;1.05;;;0.35;;
55435;SDS011;41307;53.142;6.430;2023-07-20T08:08:59;0.90;;;0.20;;
55435;SDS011;41307;53.142;6.430;2023-07-20T08:11:25;3.25;;;0.40;;
55435;SDS011;41307;53.142;6.430;2023-07-20T08:13:51;1.33;;;0.60;;
55435;SDS011;41307;53.142;6.430;2023-07-20T08:16:17;0.93;;;0.40;;
55435;SDS011;41307;53.142;6.430;2023-07-20T08:18:43;0.40;;;0.20;;
55435;SDS011;41307;53.142;6.430;2023-07-20T08:21:09;0.63;;;0.63;;
55435;SDS011;41307;53.142;6.430;2023-07-20T08:23:34;0.80;;;0.30;;
55435;SDS011;41307;53.142;6.430;2023-07-20T08:26:00;1.02;;;0.32;;
55435;SDS011;41307;53.142;6.430;2023-07-20T08:28:26;0.77;;;0.40;;
55435;SDS011;41307;53.142;6.430;2023-07-20T08:30:52;2.28;;;0.52;;
55435;SDS011;41307;53.142;6.430;2023-07-20T08:33:18;0.38;;;0.30;;
55435;SDS011;41307;53.142;6.430;2023-07-20T08:35:45;1.17;;;0.20;;
55435;SDS011;41307;53.142;6.430;2023-07-20T08:38:11;1.40;;;0.20;;
55435;SDS011;41307;53.142;6.430;2023-07-20T08:40:46;0.65;;;0.20;;
55435;SDS011;41307;53.142;6.430;2023-07-20T08:43:13;0.55;;;0.20;;
55435;SDS011;41307;53.142;6.430;2023-07-20T08:45:41;0.38;;;0.20;;
55435;SDS011;41307;53.142;6.430;2023-07-20T08:48:09;0.55;;;0.20;;
55435;SDS011;41307;53.142;6.430;2023-07-20T08:50:37;1.45;;;0.25;;
55435;SDS011;41307;53.142;6.430;2023-07-20T08:53:04;0.63;;;0.30;;
55435;SDS011;41307;53.142;6.430;2023-07-20T08:55:31;1.67;;;0.22;;
55435;SDS011;41307;53.142;6.430;2023-07-20T08:57:58;1.23;;;0.22;;
55435;SDS011;41307;53.142;6.430;2023-07-20T09:00:25;0.43;;;0.25;;
55435;SDS011;41307;53.142;6.430;2023-07-20T09:02:53;1.15;;;0.30;;
55435;SDS011;41307;53.142;6.430;2023-07-20T09:05:20;1.63;;;0.30;;
55435;SDS011;41307;53.142;6.430;2023-07-20T09:07:48;0.35;;;0.10;;
55435;SDS011;41307;53.142;6.430;2023-07-20T09:10:14;1.02;;;0.20;;
55435;SDS011;41307;53.142;6.430;2023-07-20T09:12:43;0.30;;;0.10;;
55435;SDS011;41307;53.142;6.430;2023-07-20T09:15:10;0.68;;;0.10;;
55435;SDS011;41307;53.142;6.430;2023-07-20T09:17:36;0.28;;;0.10;;
55435;SDS011;41307;53.142;6.430;2023-07-20T09:20:05;0.50;;;0.17;;
55435;SDS011;41307;53.142;6.430;2023-07-20T09:22:36;0.57;;;0.30;;
55435;SDS011;41307;53.142;6.430;2023-07-20T09:25:07;0.82;;;0.20;;
55435;SDS011;41307;53.142;6.430;2023-07-20T09:27:41;0.40;;;0.10;;
55435;SDS011;41307;53.142;6.430;2023-07-20T09:30:11;0.15;;;0.10;;
55435;SDS011;41307;53.142;6.430;2023-07-20T09:35:15;0.88;;;0.20;;
55435;SDS011;41307;53.142;6.430;2023-07-20T09:37:58;0.13;;;0.10;;
55435;SDS011;41307;53.142;6.430;2023-07-20T09:40:25;0.32;;;0.32;;
55435;SDS011;41307;53.142;6.430;2023-07-20T09:42:52;0.30;;;0.08;;
55435;SDS011;41307;53.142;6.430;2023-07-20T09:45:40;0.38;;;0.10;;
55435;SDS011;41307;53.142;6.430;2023-07-20T09:48:08;0.82;;;0.20;;
55435;SDS011;41307;53.142;6.430;2023-07-20T09:50:41;1.02;;;0.20;;
55435;SDS011;41307;53.142;6.430;2023-07-20T09:53:11;0.30;;;0.10;;
55435;SDS011;41307;53.142;6.430;2023-07-20T09:55:39;0.55;;;0.10;;
55435;SDS011;41307;53.142;6.430;2023-07-20T09:58:06;0.75;;;0.10;;
55435;SDS011;41307;53.142;6.430;2023-07-20T10:00:35;1.40;;;0.17;;
55435;SDS011;41307;53.142;6.430;2023-07-20T10:03:03;0.10;;;0.10;;
55435;SDS011;41307;53.142;6.430;2023-07-20T10:05:32;0.20;;;0.10;;
55435;SDS011;41307;53.142;6.430;2023-07-20T10:08:00;0.57;;;0.20;;
55435;SDS011;41307;53.142;6.430;2023-07-20T10:10:27;0.45;;;0.13;;
55435;SDS011;41307;53.142;6.430;2023-07-20T10:12:56;0.15;;;0.10;;
55435;SDS011;41307;53.142;6.430;2023-07-20T10:15:32;0.10;;;0.10;;
55435;SDS011;41307;53.142;6.430;2023-07-20T10:18:09;0.30;;;0.10;;
55435;SDS011;41307;53.142;6.430;2023-07-20T10:20:40;0.55;;;0.28;;
55435;SDS011;41307;53.142;6.430;2023-07-20T10:23:07;0.25;;;0.10;;
55435;SDS011;41307;53.142;6.430;2023-07-20T10:25:33;0.25;;;0.10;;
55435;SDS011;41307;53.142;6.430;2023-07-20T10:28:06;0.68;;;0.20;;
55435;SDS011;41307;53.142;6.430;2023-07-20T10:30:35;0.47;;;0.10;;
55435;SDS011;41307;53.142;6.430;2023-07-20T10:33:02;0.52;;;0.10;;
55435;SDS011;41307;53.142;6.430;2023-07-20T10:35:29;0.10;;;0.10;;
55435;SDS011;41307;53.142;6.430;2023-07-20T10:38:05;1.27;;;0.38;;
55435;SDS011;41307;53.142;6.430;2023-07-20T10:40:34;0.63;;;0.20;;
55435;SDS011;41307;53.142;6.430;2023-07-20T10:43:04;0.38;;;0.10;;
55435;SDS011;41307;53.142;6.430;2023-07-20T10:45:33;0.73;;;0.20;;
55435;SDS011;41307;53.142;6.430;2023-07-20T10:48:04;0.55;;;0.10;;
55435;SDS011;41307;53.142;6.430;2023-07-20T10:50:34;0.77;;;0.10;;
55435;SDS011;41307;53.142;6.430;2023-07-20T10:53:04;0.32;;;0.10;;
55435;SDS011;41307;53.142;6.430;2023-07-20T10:55:38;0.20;;;0.10;;
55435;SDS011;41307;53.142;6.430;2023-07-20T10:58:08;0.47;;;0.28;;
55435;SDS011;41307;53.142;6.430;2023-07-20T11:01:00;0.80;;;0.20;;
55435;SDS011;41307;53.142;6.430;2023-07-20T11:03:27;0.63;;;0.20;;
55435;SDS011;41307;53.142;6.430;2023-07-20T11:05:57;0.50;;;0.20;;
55435;SDS011;41307;53.142;6.430;2023-07-20T11:08:39;2.28;;;0.20;;
55435;SDS011;41307;53.142;6.430;2023-07-20T11:11:30;0.35;;;0.10;;
55435;SDS011;41307;53.142;6.430;2023-07-20T11:13:58;0.40;;;0.20;;
55435;SDS011;41307;53.142;6.430;2023-07-20T11:19:35;1.73;;;0.20;;
55435;SDS011;41307;53.142;6.430;2023-07-20T11:22:01;0.70;;;0.10;;
55435;SDS011;41307;53.142;6.430;2023-07-20T11:24:32;0.22;;;0.10;;
55435;SDS011;41307;53.142;6.430;2023-07-20T11:26:59;1.15;;;0.20;;
55435;SDS011;41307;53.142;6.430;2023-07-20T11:29:26;0.38;;;0.15;;
55435;SDS011;41307;53.142;6.430;2023-07-20T11:31:52;1.33;;;0.32;;
55435;SDS011;41307;53.142;6.430;2023-07-20T11:34:18;0.82;;;0.10;;
55435;SDS011;41307;53.142;6.430;2023-07-20T11:36:47;0.63;;;0.30;;
55435;SDS011;41307;53.142;6.430;2023-07-20T11:39:14;0.90;;;0.30;;
55435;SDS011;41307;53.142;6.430;2023-07-20T11:41:48;0.35;;;0.22;;
55435;SDS011;41307;53.142;6.430;2023-07-20T11:44:19;0.50;;;0.27;;
55435;SDS011;41307;53.142;6.430;2023-07-20T11:46:59;0.52;;;0.10;;
55435;SDS011;41307;53.142;6.430;2023-07-20T11:49:29;0.22;;;0.10;;
55435;SDS011;41307;53.142;6.430;2023-07-20T11:51:55;1.30;;;0.20;;
55435;SDS011;41307;53.142;6.430;2023-07-20T11:54:22;0.57;;;0.20;;
55435;SDS011;41307;53.142;6.430;2023-07-20T11:56:53;0.80;;;0.20;;
55435;SDS011;41307;53.142;6.430;2023-07-20T11:59:20;0.63;;;0.20;;
55435;SDS011;41307;53.142;6.430;2023-07-20T12:01:45;0.68;;;0.20;;
55435;SDS011;41307;53.142;6.430;2023-07-20T12:04:11;1.42;;;0.40;;
55435;SDS011;41307;53.142;6.430;2023-07-20T12:06:37;0.95;;;0.10;;
55435;SDS011;41307;53.142;6.430;2023-07-20T12:09:03;1.05;;;0.20;;
55435;SDS011;41307;53.142;6.430;2023-07-20T12:11:35;0.10;;;0.10;;
55435;SDS011;41307;53.142;6.430;2023-07-20T12:14:03;0.38;;;0.10;;
55435;SDS011;41307;53.142;6.430;2023-07-20T12:16:33;0.88;;;0.30;;
55435;SDS011;41307;53.142;6.430;2023-07-20T12:19:07;0.38;;;0.20;;
55435;SDS011;41307;53.142;6.430;2023-07-20T12:21:34;0.40;;;0.10;;
55435;SDS011;41307;53.142;6.430;2023-07-20T12:24:05;0.30;;;0.20;;
55435;SDS011;41307;53.142;6.430;2023-07-20T12:26:32;1.45;;;0.32;;
55435;SDS011;41307;53.142;6.430;2023-07-20T12:28:59;1.08;;;0.40;;
55435;SDS011;41307;53.142;6.430;2023-07-20T12:31:26;0.30;;;0.20;;
55435;SDS011;41307;53.142;6.430;2023-07-20T12:33:52;0.52;;;0.20;;
55435;SDS011;41307;53.142;6.430;2023-07-20T12:36:20;0.40;;;0.20;;
55435;SDS011;41307;53.142;6.430;2023-07-20T12:38:46;0.65;;;0.30;;
55435;SDS011;41307;53.142;6.430;2023-07-20T12:41:12;0.68;;;0.10;;
55435;SDS011;41307;53.142;6.430;2023-07-20T12:43:41;1.08;;;0.30;;
55435;SDS011;41307;53.142;6.430;2023-07-20T12:46:08;0.63;;;0.30;;
55435;SDS011;41307;53.142;6.430;2023-07-20T12:48:36;1.02;;;0.30;;
55435;SDS011;41307;53.142;6.430;2023-07-20T12:51:03;1.08;;;0.30;;
55435;SDS011;41307;53.142;6.430;2023-07-20T12:53:30;0.38;;;0.30;;
55435;SDS011;41307;53.142;6.430;2023-07-20T12:55:57;0.32;;;0.20;;
55435;SDS011;41307;53.142;6.430;2023-07-20T12:58:23;0.45;;;0.15;;
55435;SDS011;41307;53.142;6.430;2023-07-20T13:00:49;0.65;;;0.20;;
55435;SDS011;41307;53.142;6.430;2023-07-20T13:03:15;1.10;;;0.30;;
55435;SDS011;41307;53.142;6.430;2023-07-20T13:05:41;1.08;;;0.20;;
55435;SDS011;41307;53.142;6.430;2023-07-20T13:08:07;1.02;;;0.30;;
55435;SDS011;41307;53.142;6.430;2023-07-20T13:10:33;0.30;;;0.20;;
55435;SDS011;41307;53.142;6.430;2023-07-20T13:12:59;0.20;;;0.20;;
55435;SDS011;41307;53.142;6.430;2023-07-20T13:15:29;0.40;;;0.15;;
55435;SDS011;41307;53.142;6.430;2023-07-20T13:17:56;0.85;;;0.20;;
55435;SDS011;41307;53.142;6.430;2023-07-20T13:20:23;0.65;;;0.30;;
55435;SDS011;41307;53.142;6.430;2023-07-20T13:22:50;0.50;;;0.10;;
55435;SDS011;41307;53.142;6.430;2023-07-20T13:25:16;0.47;;;0.20;;
55435;SDS011;41307;53.142;6.430;2023-07-20T13:27:41;0.88;;;0.20;;
55435;SDS011;41307;53.142;6.430;2023-07-20T13:30:07;0.10;;;0.10;;
55435;SDS011;41307;53.142;6.430;2023-07-20T13:32:36;1.75;;;0.28;;
55435;SDS011;41307;53.142;6.430;2023-07-20T13:35:02;1.02;;;0.30;;
55435;SDS011;41307;53.142;6.430;2023-07-20T13:37:28;1.42;;;0.22;;
55435;SDS011;41307;53.142;6.430;2023-07-20T13:39:54;0.35;;;0.20;;
55435;SDS011;41307;53.142;6.430;2023-07-20T13:42:19;0.60;;;0.30;;
55435;SDS011;41307;53.142;6.430;2023-07-20T13:44:47;0.45;;;0.20;;
55435;SDS011;41307;53.142;6.430;2023-07-20T13:47:13;0.70;;;0.10;;
55435;SDS011;41307;53.142;6.430;2023-07-20T13:49:39;2.15;;;0.30;;
55435;SDS011;41307;53.142;6.430;2023-07-20T13:52:05;0.10;;;0.10;;
55435;SDS011;41307;53.142;6.430;2023-07-20T13:54:31;1.25;;;0.30;;
55435;SDS011;41307;53.142;6.430;2023-07-20T13:56:57;1.15;;;0.40;;
55435;SDS011;41307;53.142;6.430;2023-07-20T13:59:22;0.65;;;0.20;;
55435;SDS011;41307;53.142;6.430;2023-07-20T14:01:48;0.32;;;0.20;;
55435;SDS011;41307;53.142;6.430;2023-07-20T14:04:14;0.55;;;0.22;;
55435;SDS011;41307;53.142;6.430;2023-07-20T14:06:40;0.65;;;0.25;;
55435;SDS011;41307;53.142;6.430;2023-07-20T14:09:06;2.40;;;0.20;;
55435;SDS011;41307;53.142;6.430;2023-07-20T14:11:32;0.65;;;0.20;;
55435;SDS011;41307;53.142;6.430;2023-07-20T14:13:58;1.08;;;0.40;;
55435;SDS011;41307;53.142;6.430;2023-07-20T14:16:24;1.65;;;0.57;;
55435;SDS011;41307;53.142;6.430;2023-07-20T14:18:49;0.88;;;0.15;;
55435;SDS011;41307;53.142;6.430;2023-07-20T14:21:16;1.08;;;0.40;;
55435;SDS011;41307;53.142;6.430;2023-07-20T14:23:44;0.60;;;0.30;;
55435;SDS011;41307;53.142;6.430;2023-07-20T14:26:11;0.82;;;0.30;;
55435;SDS011;41307;53.142;6.430;2023-07-20T14:28:37;0.95;;;0.30;;
55435;SDS011;41307;53.142;6.430;2023-07-20T14:31:03;0.70;;;0.22;;
55435;SDS011;41307;53.142;6.430;2023-07-20T14:33:29;1.00;;;0.35;;
55435;SDS011;41307;53.142;6.430;2023-07-20T14:35:54;0.20;;;0.20;;
55435;SDS011;41307;53.142;6.430;2023-07-20T14:38:20;0.70;;;0.20;;
55435;SDS011;41307;53.142;6.430;2023-07-20T14:40:46;1.38;;;0.30;;
55435;SDS011;41307;53.142;6.430;2023-07-20T14:43:11;0.65;;;0.20;;
55435;SDS011;41307;53.142;6.430;2023-07-20T14:45:40;0.82;;;0.20;;
55435;SDS011;41307;53.142;6.430;2023-07-20T14:48:09;0.90;;;0.20;;
55435;SDS011;41307;53.142;6.430;2023-07-20T14:50:35;0.45;;;0.30;;
55435;SDS011;41307;53.142;6.430;2023-07-20T14:53:00;0.73;;;0.30;;
55435;SDS011;41307;53.142;6.430;2023-07-20T14:55:26;0.57;;;0.22;;
55435;SDS011;41307;53.142;6.430;2023-07-20T14:57:52;2.78;;;0.40;;
55435;SDS011;41307;53.142;6.430;2023-07-20T15:00:17;0.95;;;0.30;;
55435;SDS011;41307;53.142;6.430;2023-07-20T15:02:43;1.38;;;0.32;;
55435;SDS011;41307;53.142;6.430;2023-07-20T15:05:09;0.60;;;0.30;;